createdAt,value
2023-05-31T00:01:05.515Z,98098.91
2023-05-31T00:03:32.831Z,98087.56
2023-05-31T00:06:00.090Z,98093.50
2023-05-31T00:08:27.450Z,98092.41
2023-05-31T00:10:54.622Z,98092.66
2023-05-31T00:13:22.037Z,98088.28
2023-05-31T00:15:49.287Z,98089.88
2023-05-31T00:18:17.903Z,98087.47
2023-05-31T00:20:45.209Z,98084.97
2023-05-31T00:23:12.411Z,98092.31
2023-05-31T00:25:39.567Z,98085.28
2023-05-31T00:28:06.708Z,98089.09
2023-05-31T00:30:34.150Z,98094.22
2023-05-31T00:33:01.376Z,98098.31
2023-05-31T00:35:29.970Z,98107.22
2023-05-31T00:37:57.315Z,98101.28
2023-05-31T00:40:24.575Z,98089.81
2023-05-31T00:42:51.732Z,98108.41
2023-05-31T00:45:18.857Z,98105.97
2023-05-31T00:47:46.528Z,98104.38
2023-05-31T00:50:14.127Z,98099.78
2023-05-31T00:52:44.132Z,98101.97
2023-05-31T00:55:11.639Z,98103.25
2023-05-31T00:57:39.070Z,98103.25
2023-05-31T01:03:18.438Z,98100.19
2023-05-31T01:05:46.223Z,98091.78
2023-05-31T01:08:14.982Z,98102.09
2023-05-31T01:10:42.405Z,98079.44
2023-05-31T01:13:17.421Z,98080.47
2023-05-31T01:15:48.090Z,98097.25
2023-05-31T01:18:21.634Z,98085.38
2023-05-31T01:20:50.687Z,98088.84
2023-05-31T01:23:37.511Z,98089.47
2023-05-31T01:26:34.559Z,98091.38
2023-05-31T01:29:06.250Z,98091.13
2023-05-31T01:31:36.365Z,98072.50
2023-05-31T01:34:04.768Z,98074.69
2023-05-31T01:36:32.174Z,98080.88
2023-05-31T01:39:00.994Z,98084.09
2023-05-31T01:41:29.580Z,98084.06
2023-05-31T01:43:58.556Z,98080.25
2023-05-31T01:46:28.138Z,98090.22
2023-05-31T01:48:56.290Z,98090.22
2023-05-31T01:51:23.526Z,98088.59
2023-05-31T01:53:50.820Z,98068.38
2023-05-31T01:56:19.458Z,98090.22
2023-05-31T01:58:47.183Z,98096.19
2023-05-31T02:01:14.836Z,98097.81
2023-05-31T02:03:43.875Z,98099.50
2023-05-31T02:06:11.113Z,98109.44
2023-05-31T02:08:38.328Z,98106.78
2023-05-31T02:11:05.657Z,98105.81
2023-05-31T02:13:32.799Z,98086.38
2023-05-31T02:16:00.306Z,98099.88
2023-05-31T02:18:27.806Z,98110.63
2023-05-31T02:20:56.544Z,98109.84
2023-05-31T02:23:23.929Z,98118.47
2023-05-31T02:25:51.753Z,98106.84
2023-05-31T02:28:19.223Z,98101.69
2023-05-31T02:30:54.900Z,98090.91
2023-05-31T02:33:22.149Z,98105.16
2023-05-31T02:35:49.306Z,98106.47
2023-05-31T02:38:19.203Z,98109.69
2023-05-31T02:40:46.428Z,98109.44
2023-05-31T02:43:13.569Z,98111.91
2023-05-31T02:45:40.734Z,98086.91
2023-05-31T02:48:07.935Z,98104.94
2023-05-31T02:50:35.107Z,98118.44
2023-05-31T02:53:02.259Z,98114.91
2023-05-31T02:55:30.989Z,98115.25
2023-05-31T02:57:58.122Z,98110.38
2023-05-31T03:00:25.456Z,98110.13
2023-05-31T03:02:52.972Z,98109.31
2023-05-31T03:05:20.356Z,98111.75
2023-05-31T03:07:47.758Z,98114.44
2023-05-31T03:10:14.883Z,98112.53
2023-05-31T03:12:43.527Z,98109.56
2023-05-31T03:15:11.098Z,98114.91
2023-05-31T03:17:38.317Z,98109.50
2023-05-31T03:20:07.339Z,98122.19
2023-05-31T03:22:34.525Z,98093.13
2023-05-31T03:25:02.123Z,98118.44
2023-05-31T03:27:29.273Z,98116.00
2023-05-31T03:29:57.934Z,98111.97
2023-05-31T03:32:25.083Z,98121.38
2023-05-31T03:34:52.368Z,98122.75
2023-05-31T03:37:19.523Z,98125.72
2023-05-31T03:39:46.683Z,98117.69
2023-05-31T03:42:13.812Z,98127.16
2023-05-31T03:44:40.982Z,98123.72
2023-05-31T03:47:09.612Z,98118.28
2023-05-31T03:49:36.722Z,98124.22
2023-05-31T03:52:04.295Z,98124.75
2023-05-31T03:54:31.444Z,98123.91
2023-05-31T03:56:58.594Z,98119.34
2023-05-31T03:59:25.752Z,98124.94
2023-05-31T04:01:52.902Z,98121.16
2023-05-31T04:04:21.613Z,98127.88
2023-05-31T04:06:48.931Z,98130.59
2023-05-31T04:09:16.063Z,98129.78
2023-05-31T04:11:43.192Z,98117.19
2023-05-31T04:14:10.324Z,98119.59
2023-05-31T04:16:37.623Z,98126.72
2023-05-31T04:19:04.966Z,98133.50
2023-05-31T04:21:33.588Z,98134.22
2023-05-31T04:24:00.761Z,98136.94
2023-05-31T04:26:27.977Z,98138.66
2023-05-31T04:28:55.248Z,98132.44
2023-05-31T04:31:22.934Z,98143.00
2023-05-31T04:33:50.067Z,98142.78
2023-05-31T04:36:17.214Z,98140.94
2023-05-31T04:38:45.681Z,98138.50
2023-05-31T04:41:12.864Z,98137.44
2023-05-31T04:43:40.010Z,98146.59
2023-05-31T04:46:08.419Z,98146.41
2023-05-31T04:48:40.425Z,98141.84
2023-05-31T04:51:10.068Z,98149.09
2023-05-31T04:53:38.988Z,98155.38
2023-05-31T04:56:11.369Z,98157.22
2023-05-31T04:58:48.964Z,98153.16
2023-05-31T05:01:16.908Z,98124.31
2023-05-31T05:03:47.400Z,98146.97
2023-05-31T05:06:19.873Z,98153.16
2023-05-31T05:08:49.074Z,98155.94
2023-05-31T05:11:27.051Z,98158.91
2023-05-31T05:13:54.855Z,98151.91
2023-05-31T05:16:24.057Z,98143.81
2023-05-31T05:18:57.239Z,98161.59
2023-05-31T05:21:25.773Z,98158.69
2023-05-31T05:23:55.080Z,98168.69
2023-05-31T05:26:39.914Z,98168.38
2023-05-31T05:29:08.681Z,98162.19
2023-05-31T05:31:38.214Z,98160.84
2023-05-31T05:34:11.030Z,98162.47
2023-05-31T05:36:39.184Z,98167.59
2023-05-31T05:39:10.164Z,98134.97
2023-05-31T05:41:41.563Z,98166.00
2023-05-31T05:44:14.294Z,98161.16
2023-05-31T05:46:46.586Z,98165.72
2023-05-31T05:49:19.402Z,98165.72
2023-05-31T05:51:52.632Z,98169.00
2023-05-31T05:54:22.957Z,98169.22
2023-05-31T05:56:54.383Z,98173.56
2023-05-31T05:59:23.760Z,98169.50
2023-05-31T06:01:51.974Z,98181.91
2023-05-31T06:04:21.893Z,98171.13
2023-05-31T06:06:52.515Z,98173.56
2023-05-31T06:09:21.497Z,98181.38
2023-05-31T06:11:54.344Z,98173.59
2023-05-31T06:14:30.490Z,98170.88
2023-05-31T06:17:02.013Z,98171.91
2023-05-31T06:19:35.017Z,98173.56
2023-05-31T06:22:03.690Z,98177.88
2023-05-31T06:24:34.946Z,98174.13
2023-05-31T06:27:06.354Z,98177.63
2023-05-31T06:29:35.647Z,98177.34
2023-05-31T06:32:08.509Z,98174.13
2023-05-31T06:34:42.099Z,98163.84
2023-05-31T06:37:15.665Z,98173.84
2023-05-31T06:39:44.865Z,98172.50
2023-05-31T06:42:22.485Z,98170.88
2023-05-31T06:47:22.283Z,98166.84
2023-05-31T06:49:49.517Z,98165.75
2023-05-31T06:52:16.632Z,98161.44
2023-05-31T06:54:44.504Z,98162.25
2023-05-31T06:57:11.632Z,98161.16
2023-05-31T06:59:40.102Z,98162.50
2023-05-31T07:02:07.727Z,98162.22
2023-05-31T07:04:34.910Z,98155.47
2023-05-31T07:07:02.046Z,98157.38
2023-05-31T07:09:29.241Z,98151.19
2023-05-31T07:11:56.473Z,98139.84
2023-05-31T07:14:23.596Z,98152.53
2023-05-31T07:16:52.121Z,98143.91
2023-05-31T07:19:19.268Z,98153.34
2023-05-31T07:21:46.420Z,98156.28
2023-05-31T07:24:13.627Z,98155.75
2023-05-31T07:26:40.761Z,98152.22
2023-05-31T07:29:08.007Z,98140.66
2023-05-31T07:31:35.557Z,98143.63
2023-05-31T07:34:04.050Z,98147.13
2023-05-31T07:36:31.242Z,98144.69
2023-05-31T07:38:58.396Z,98146.03
2023-05-31T07:41:25.571Z,98144.13
2023-05-31T07:43:52.776Z,98146.84
2023-05-31T07:46:19.903Z,98145.47
2023-05-31T07:48:47.171Z,98135.50
2023-05-31T07:51:15.734Z,98130.34
2023-05-31T07:53:42.938Z,98128.22
2023-05-31T07:56:10.306Z,98128.22
2023-05-31T07:58:37.544Z,98126.31
2023-05-31T08:01:05.065Z,98124.69
2023-05-31T08:03:32.461Z,98123.59
2023-05-31T08:05:59.698Z,98111.22
2023-05-31T08:08:28.616Z,98094.22
2023-05-31T08:10:55.838Z,98124.13
2023-05-31T08:13:23.022Z,98113.91
2023-05-31T08:15:50.167Z,98110.38
2023-05-31T08:18:17.327Z,98121.19
2023-05-31T08:20:44.524Z,98117.69
2023-05-31T08:23:18.072Z,98115.78
2023-05-31T08:25:46.698Z,98112.03
2023-05-31T08:28:13.949Z,98124.97
2023-05-31T08:30:42.828Z,98126.88
2023-05-31T08:33:11.250Z,98126.59
2023-05-31T08:35:38.381Z,98118.19
2023-05-31T08:38:05.590Z,98127.63
2023-05-31T08:40:32.885Z,98127.91
2023-05-31T08:43:03.937Z,98119.00
2023-05-31T08:45:31.462Z,98119.81
2023-05-31T08:48:03.536Z,98115.50
2023-05-31T08:50:32.553Z,98110.34
2023-05-31T08:53:00.336Z,98109.03
2023-05-31T08:55:28.979Z,98100.91
2023-05-31T08:57:57.595Z,98096.59
2023-05-31T09:00:26.786Z,98105.22
2023-05-31T09:02:54.222Z,98102.53
2023-05-31T09:05:21.569Z,98108.19
2023-05-31T09:07:48.806Z,98098.22
2023-05-31T09:10:16.078Z,98079.09
2023-05-31T09:12:43.656Z,98102.81
2023-05-31T09:15:13.825Z,98086.63
2023-05-31T09:17:44.267Z,98066.69
2023-05-31T09:20:11.543Z,98099.28
2023-05-31T09:22:39.057Z,98103.31
2023-05-31T09:25:06.797Z,98089.28
2023-05-31T09:27:37.891Z,98092.50
2023-05-31T09:30:06.864Z,98091.72
2023-05-31T09:32:35.301Z,98093.84
2023-05-31T09:35:13.558Z,98084.94
2023-05-31T09:37:44.565Z,98079.25
2023-05-31T09:40:14.105Z,98079.81
2023-05-31T09:42:47.972Z,98079.81
2023-05-31T09:45:15.628Z,98070.66
2023-05-31T09:47:43.043Z,98073.88
2023-05-31T09:50:12.222Z,98077.09
2023-05-31T09:52:39.441Z,98062.28
2023-05-31T09:55:07.862Z,98059.84
2023-05-31T09:57:36.096Z,98065.50
2023-05-31T10:00:03.547Z,98066.56
2023-05-31T10:02:30.978Z,98055.50
2023-05-31T10:04:58.959Z,98063.06
2023-05-31T10:07:28.460Z,98060.88
2023-05-31T10:09:55.657Z,98060.84
2023-05-31T10:12:25.664Z,98040.59
2023-05-31T10:15:00.030Z,98045.97
2023-05-31T10:17:29.757Z,98058.66
2023-05-31T10:20:03.728Z,98043.03
2023-05-31T10:22:32.972Z,98060.03
2023-05-31T10:25:04.596Z,98041.13
2023-05-31T10:27:38.680Z,98035.78
2023-05-31T10:30:09.760Z,98037.97
2023-05-31T10:32:42.287Z,98016.13
2023-05-31T10:35:10.248Z,98026.09
2023-05-31T10:37:40.574Z,98032.84
2023-05-31T10:40:13.799Z,98026.09
2023-05-31T10:42:46.162Z,98025.81
2023-05-31T10:45:17.057Z,98027.94
2023-05-31T10:47:50.982Z,98029.00
2023-05-31T10:50:19.093Z,98015.44
2023-05-31T10:52:49.237Z,98013.25
2023-05-31T10:55:17.257Z,98015.97
2023-05-31T10:57:44.450Z,98017.53
2023-05-31T11:00:12.616Z,98021.06
2023-05-31T11:02:47.940Z,98011.06
2023-05-31T11:05:22.236Z,98008.13
2023-05-31T11:07:51.965Z,98013.25
2023-05-31T11:10:26.998Z,98006.53
2023-05-31T11:12:57.762Z,98003.56
2023-05-31T11:15:39.418Z,98003.56
2023-05-31T11:18:09.077Z,98015.16
2023-05-31T11:20:36.688Z,98007.34
2023-05-31T11:23:29.474Z,98000.28
2023-05-31T11:26:16.576Z,98000.53
2023-05-31T11:29:00.521Z,98002.47
2023-05-31T11:32:01.538Z,98000.84
2023-05-31T11:34:31.688Z,97995.97
2023-05-31T11:37:00.475Z,97992.13
2023-05-31T11:39:29.832Z,97997.97
2023-05-31T11:41:58.186Z,97995.28
2023-05-31T11:44:30.110Z,97985.00
2023-05-31T11:47:00.932Z,97984.66
2023-05-31T11:49:28.804Z,97981.94
2023-05-31T11:51:56.949Z,97966.63
2023-05-31T11:54:29.704Z,97978.22
2023-05-31T11:57:01.043Z,97988.50
2023-05-31T11:59:28.247Z,97981.72
2023-05-31T12:01:59.796Z,97977.16
2023-05-31T12:04:34.320Z,97980.06
2023-05-31T12:07:01.653Z,97977.38
2023-05-31T12:09:30.238Z,97966.00
2023-05-31T12:11:57.946Z,97957.63
2023-05-31T12:14:26.157Z,97964.91
2023-05-31T12:16:53.435Z,97959.50
2023-05-31T12:19:20.645Z,97950.63
2023-05-31T12:21:48.205Z,97954.84
2023-05-31T12:24:16.828Z,97939.47
2023-05-31T12:26:46.596Z,97943.72
2023-05-31T12:29:14.303Z,97946.13
2023-05-31T12:31:42.771Z,97936.59
2023-05-31T12:34:10.964Z,97937.38
2023-05-31T12:36:40.038Z,97950.88
2023-05-31T12:39:12.489Z,97947.31
2023-05-31T12:41:42.560Z,97941.09
2023-05-31T12:44:12.739Z,97935.69
2023-05-31T12:46:41.538Z,97932.69
2023-05-31T12:49:14.245Z,97933.72
2023-05-31T12:51:42.970Z,97941.25
2023-05-31T12:54:13.738Z,97929.41
2023-05-31T12:56:41.078Z,97933.09
2023-05-31T12:59:08.584Z,97930.34
2023-05-31T13:01:37.477Z,97930.63
2023-05-31T13:04:05.249Z,97926.00
2023-05-31T13:06:33.329Z,97926.00
2023-05-31T13:09:00.543Z,97927.91
2023-05-31T13:11:27.733Z,97923.88
2023-05-31T13:13:55.172Z,97917.09
2023-05-31T13:16:22.366Z,97916.75
2023-05-31T13:18:50.922Z,97905.94
2023-05-31T13:21:18.241Z,97908.53
2023-05-31T13:23:45.375Z,97913.88
2023-05-31T13:26:12.521Z,97915.50
2023-05-31T13:28:39.671Z,97908.63
2023-05-31T13:31:06.814Z,97904.81
2023-05-31T13:33:34.442Z,97901.03
2023-05-31T13:36:03.102Z,97893.34
2023-05-31T13:38:30.225Z,97891.13
2023-05-31T13:40:57.741Z,97894.97
2023-05-31T13:43:24.981Z,97890.84
2023-05-31T13:45:52.609Z,97879.00
2023-05-31T13:48:20.301Z,97880.84
2023-05-31T13:50:47.545Z,97879.28
2023-05-31T13:53:16.165Z,97884.13
2023-05-31T13:55:46.899Z,97887.63
2023-05-31T13:58:23.308Z,97872.84
2023-05-31T14:00:55.981Z,97875.94
2023-05-31T14:03:23.520Z,97874.56
2023-05-31T14:05:50.752Z,97875.00
2023-05-31T14:08:19.362Z,97871.34
2023-05-31T14:10:46.690Z,97869.13
2023-05-31T14:13:14.177Z,97855.84
2023-05-31T14:15:41.320Z,97846.16
2023-05-31T14:18:09.172Z,97860.59
2023-05-31T14:20:36.540Z,97838.19
2023-05-31T14:23:04.419Z,97855.41
2023-05-31T14:25:32.948Z,97840.22
2023-05-31T14:28:00.240Z,97843.16
2023-05-31T14:30:27.499Z,97818.50
2023-05-31T14:32:54.885Z,97843.91
2023-05-31T14:35:22.622Z,97841.41
2023-05-31T14:37:55.249Z,97833.06
2023-05-31T14:40:34.707Z,97828.44
2023-05-31T14:43:02.078Z,97842.16
2023-05-31T14:45:29.209Z,97838.53
2023-05-31T14:47:56.515Z,97843.38
2023-05-31T14:50:23.861Z,97841.75
2023-05-31T14:52:50.984Z,97833.75
2023-05-31T14:55:18.161Z,97836.91
2023-05-31T14:57:46.691Z,97836.50
2023-05-31T15:00:14.510Z,97833.50
2023-05-31T15:02:41.760Z,97816.97
2023-05-31T15:05:09.954Z,97828.47
2023-05-31T15:07:37.116Z,97832.34
2023-05-31T15:10:05.074Z,97827.91
2023-05-31T15:12:32.195Z,97832.91
2023-05-31T15:15:00.695Z,97825.81
2023-05-31T15:17:28.000Z,97829.66
2023-05-31T15:19:55.340Z,97836.00
2023-05-31T15:22:22.476Z,97832.50
2023-05-31T15:24:49.684Z,97829.19
2023-05-31T15:27:16.819Z,97763.78
2023-05-31T15:29:43.950Z,97825.59
2023-05-31T15:32:12.473Z,97814.53
2023-05-31T15:34:39.601Z,97818.56
2023-05-31T15:37:06.778Z,97817.13
2023-05-31T15:39:33.930Z,97814.75
2023-05-31T15:42:01.051Z,97812.75
2023-05-31T15:44:28.878Z,97813.75
2023-05-31T15:46:56.194Z,97815.34
2023-05-31T15:49:24.704Z,97815.06
2023-05-31T15:51:51.815Z,97813.44
2023-05-31T15:54:19.026Z,97800.22
2023-05-31T15:56:46.162Z,97802.00
2023-05-31T15:59:13.293Z,97806.13
2023-05-31T16:01:40.525Z,97802.09
2023-05-31T16:04:07.854Z,97805.31
2023-05-31T16:06:36.389Z,97812.94
2023-05-31T16:09:03.835Z,97801.38
2023-05-31T16:11:31.023Z,97805.94
2023-05-31T16:13:58.154Z,97800.00
2023-05-31T16:16:25.507Z,97787.16
2023-05-31T16:18:52.943Z,97749.66
2023-05-31T16:21:20.143Z,97786.84
2023-05-31T16:23:48.664Z,97775.19
2023-05-31T16:26:15.777Z,97786.84
2023-05-31T16:28:42.942Z,97782.94
2023-05-31T16:31:13.428Z,97791.25
2023-05-31T16:33:42.066Z,97783.75
2023-05-31T16:36:09.725Z,97788.03
2023-05-31T16:38:36.970Z,97786.75
2023-05-31T16:41:05.449Z,97785.44
2023-05-31T16:43:32.593Z,97786.63
2023-05-31T16:45:59.832Z,97764.06
2023-05-31T16:48:27.308Z,97777.19
2023-05-31T16:50:54.678Z,97782.91
2023-05-31T16:53:21.887Z,97787.31
2023-05-31T16:55:49.478Z,97785.31
2023-05-31T16:58:17.997Z,97779.06
2023-05-31T17:00:45.158Z,97782.34
2023-05-31T17:03:12.556Z,97777.50
2023-05-31T17:05:41.170Z,97776.72
2023-05-31T17:08:08.403Z,97781.03
2023-05-31T17:10:35.783Z,97785.13
2023-05-31T17:13:02.928Z,97776.72
2023-05-31T17:15:31.455Z,97774.72
2023-05-31T17:17:59.202Z,97773.94
2023-05-31T17:20:26.478Z,97781.94
2023-05-31T17:22:53.632Z,97771.50
2023-05-31T17:25:20.907Z,97772.81
2023-05-31T17:27:48.068Z,97779.84
2023-05-31T17:30:15.631Z,97762.16
2023-05-31T17:32:44.205Z,97768.66
2023-05-31T17:35:11.359Z,97772.41
2023-05-31T17:37:38.541Z,97771.91
2023-05-31T17:40:07.244Z,97761.88
2023-05-31T17:42:34.386Z,97764.41
2023-05-31T17:45:01.530Z,97769.53
2023-05-31T17:47:29.161Z,97767.44
2023-05-31T17:49:57.855Z,97770.94
2023-05-31T17:52:25.067Z,97769.59
2023-05-31T17:54:52.192Z,97774.84
2023-05-31T17:57:19.312Z,97777.53
2023-05-31T17:59:46.460Z,97772.03
2023-05-31T18:02:13.647Z,97766.53
2023-05-31T18:04:40.830Z,97774.38
2023-05-31T18:07:09.319Z,97768.38
2023-05-31T18:09:36.463Z,97768.66
2023-05-31T18:12:04.061Z,97771.66
2023-05-31T18:14:31.271Z,97769.25
2023-05-31T18:16:58.541Z,97774.16
2023-05-31T18:19:25.655Z,97772.25
2023-05-31T18:21:52.898Z,97769.03
2023-05-31T18:24:21.504Z,97769.81
2023-05-31T18:26:50.835Z,97755.38
2023-05-31T18:29:18.246Z,97761.38
2023-05-31T18:31:45.403Z,97770.28
2023-05-31T18:34:12.566Z,97781.72
2023-05-31T18:36:39.694Z,97779.81
2023-05-31T18:39:06.801Z,97779.59
2023-05-31T18:41:35.275Z,97776.59
2023-05-31T18:44:02.766Z,97783.81
2023-05-31T18:46:29.951Z,97766.22
2023-05-31T18:48:57.207Z,97782.34
2023-05-31T18:51:24.383Z,97780.44
2023-05-31T18:53:51.911Z,97747.50
2023-05-31T18:56:19.025Z,97778.56
2023-05-31T18:58:47.556Z,97767.06
2023-05-31T19:01:14.775Z,97779.31
2023-05-31T19:03:42.061Z,97779.75
2023-05-31T19:06:09.383Z,97784.34
2023-05-31T19:08:36.561Z,97778.69
2023-05-31T19:11:03.833Z,97790.34
2023-05-31T19:13:30.997Z,97785.44
2023-05-31T19:15:59.872Z,97796.56
2023-05-31T19:18:27.173Z,97796.94
2023-05-31T19:20:54.360Z,97799.44
2023-05-31T19:23:21.518Z,97795.63
2023-05-31T19:25:48.669Z,97793.91
2023-05-31T19:28:15.957Z,97745.78
2023-05-31T19:30:43.498Z,97802.25
2023-05-31T19:33:12.157Z,97804.63
2023-05-31T19:35:39.647Z,97805.13
2023-05-31T19:38:06.925Z,97806.50
2023-05-31T19:40:34.147Z,97801.19
2023-05-31T19:43:01.316Z,97815.44
2023-05-31T19:45:28.495Z,97813.31
2023-05-31T19:47:55.647Z,97816.81
2023-05-31T19:50:24.219Z,97821.44
2023-05-31T19:52:51.321Z,97827.41
2023-05-31T19:55:18.453Z,97824.72
2023-05-31T19:57:45.790Z,97821.50
2023-05-31T20:00:13.373Z,97831.75
2023-05-31T20:02:40.504Z,97819.63
2023-05-31T20:05:08.324Z,97821.09
2023-05-31T20:07:36.824Z,97817.94
2023-05-31T20:10:04.416Z,97829.50
2023-05-31T20:12:31.592Z,97824.06
2023-05-31T20:14:59.949Z,97825.03
2023-05-31T20:17:29.385Z,97822.97
2023-05-31T20:19:56.640Z,97825.81
2023-05-31T20:22:23.753Z,97829.84
2023-05-31T20:24:52.249Z,97817.19
2023-05-31T20:27:19.413Z,97823.63
2023-05-31T20:29:46.550Z,97823.41
2023-05-31T20:32:13.726Z,97822.31
2023-05-31T20:34:41.025Z,97822.09
2023-05-31T20:37:08.247Z,97822.16
2023-05-31T20:39:35.360Z,97822.09
2023-05-31T20:42:04.277Z,97815.06
2023-05-31T20:44:33.295Z,97819.69
2023-05-31T20:47:00.430Z,97823.19
2023-05-31T20:49:27.636Z,97823.78
2023-05-31T20:51:54.777Z,97814.16
2023-05-31T20:54:21.902Z,97824.97
2023-05-31T20:56:49.408Z,97817.41
2023-05-31T20:59:17.945Z,97819.47
2023-05-31T21:01:45.120Z,97816.97
2023-05-31T21:04:12.279Z,97824.59
2023-05-31T21:06:39.613Z,97821.50
2023-05-31T21:09:06.731Z,97816.91
2023-05-31T21:11:34.315Z,97812.88
2023-05-31T21:14:01.428Z,97819.63
2023-05-31T21:16:29.944Z,97820.69
2023-05-31T21:18:57.110Z,97822.38
2023-05-31T21:21:24.407Z,97823.28
2023-05-31T21:23:51.543Z,97822.44
2023-05-31T21:26:18.736Z,97824.31
2023-05-31T21:28:45.864Z,97830.22
2023-05-31T21:31:13.024Z,97828.09
2023-05-31T21:33:41.549Z,97820.63
2023-05-31T21:36:08.978Z,97830.66
2023-05-31T21:38:36.106Z,97835.78
2023-05-31T21:41:05.222Z,97844.19
2023-05-31T21:43:34.545Z,97843.09
2023-05-31T21:46:01.658Z,97846.00
2023-05-31T21:48:28.808Z,97837.97
2023-05-31T21:50:57.280Z,97841.72
2023-05-31T21:53:24.416Z,97843.03
2023-05-31T21:55:51.549Z,97844.31
2023-05-31T21:58:18.659Z,97837.00
2023-05-31T22:00:45.832Z,97837.63
2023-05-31T22:03:13.009Z,97844.84
2023-05-31T22:05:40.121Z,97837.00
2023-05-31T22:08:08.595Z,97838.34
2023-05-31T22:10:35.740Z,97842.13
2023-05-31T22:13:02.870Z,97834.31
2023-05-31T22:15:30.043Z,97836.72
2023-05-31T22:17:57.442Z,97834.09
2023-05-31T22:20:24.621Z,97833.50
2023-05-31T22:22:51.746Z,97835.47
2023-05-31T22:25:20.365Z,97835.84
2023-05-31T22:27:47.531Z,97833.16
2023-05-31T22:30:15.053Z,97832.88
2023-05-31T22:32:42.259Z,97829.31
2023-05-31T22:35:10.101Z,97834.16
2023-05-31T22:37:37.202Z,97836.09
2023-05-31T22:40:05.122Z,97835.69
2023-05-31T22:42:33.617Z,97833.50
2023-05-31T22:45:00.733Z,97823.84
2023-05-31T22:47:28.089Z,97840.53
2023-05-31T22:49:55.219Z,97836.72
2023-05-31T22:52:22.349Z,97845.13
2023-05-31T22:54:49.475Z,97837.84
2023-05-31T22:57:16.649Z,97826.28
2023-05-31T22:59:45.100Z,97835.78
2023-05-31T23:02:12.272Z,97831.47
2023-05-31T23:04:39.424Z,97831.69
2023-05-31T23:07:06.680Z,97841.63
2023-05-31T23:09:33.849Z,97844.41
2023-05-31T23:12:01.017Z,97838.84
2023-05-31T23:14:28.348Z,97854.78
2023-05-31T23:16:58.882Z,97841.25
2023-05-31T23:19:26.070Z,97843.47
2023-05-31T23:21:53.258Z,97846.41
2023-05-31T23:24:20.425Z,97845.00
2023-05-31T23:26:47.552Z,97846.81
2023-05-31T23:29:14.676Z,97847.31
2023-05-31T23:31:41.878Z,97851.16
2023-05-31T23:34:10.379Z,97843.91
2023-05-31T23:36:37.490Z,97848.16
2023-05-31T23:39:04.629Z,97845.72
2023-05-31T23:41:31.756Z,97847.31
2023-05-31T23:43:58.944Z,97844.63
2023-05-31T23:46:26.219Z,97839.22
2023-05-31T23:48:53.420Z,97840.81
2023-05-31T23:51:22.002Z,97845.94
2023-05-31T23:53:49.186Z,97850.53
2023-05-31T23:56:16.306Z,97842.28
2023-05-31T23:58:43.443Z,97845.28
